createdAt,value
2023-01-10T00:00:03.507Z,990.56
2023-01-10T00:01:03.464Z,990.54
2023-01-10T00:02:03.446Z,990.53
2023-01-10T00:03:03.463Z,990.56
2023-01-10T00:04:03.407Z,990.57
2023-01-10T00:05:03.357Z,990.57
2023-01-10T00:06:03.328Z,990.59
2023-01-10T00:07:03.298Z,990.60
2023-01-10T00:08:03.278Z,990.61
2023-01-10T00:09:03.261Z,990.60
2023-01-10T00:10:03.261Z,990.59
2023-01-10T00:11:03.218Z,990.61
2023-01-10T00:12:03.180Z,990.61
2023-01-10T00:13:03.161Z,990.61
2023-01-10T00:14:03.149Z,990.66
2023-01-10T00:15:03.095Z,990.66
2023-01-10T00:16:03.131Z,990.63
2023-01-10T00:17:03.050Z,990.71
2023-01-10T00:18:03.023Z,990.71
2023-01-10T00:19:03.011Z,990.69
2023-01-10T00:20:02.975Z,990.65
2023-01-10T00:21:02.943Z,990.67
2023-01-10T00:22:02.925Z,990.65
2023-01-10T00:23:02.926Z,990.66
2023-01-10T00:24:02.876Z,990.72
2023-01-10T00:25:02.855Z,990.72
2023-01-10T00:26:02.839Z,990.75
2023-01-10T00:27:02.811Z,990.74
2023-01-10T00:28:02.779Z,990.78
2023-01-10T00:29:02.757Z,990.78
2023-01-10T00:30:02.736Z,990.79
2023-01-10T00:31:02.757Z,990.80
2023-01-10T00:32:02.674Z,990.82
2023-01-10T00:33:02.646Z,990.86
2023-01-10T00:34:02.632Z,990.93
2023-01-10T00:35:02.612Z,990.90
2023-01-10T00:36:02.583Z,990.90
2023-01-10T00:37:02.544Z,990.94
2023-01-10T00:38:02.529Z,990.99
2023-01-10T00:39:02.495Z,990.99
2023-01-10T00:40:02.469Z,991.02
2023-01-10T00:41:02.451Z,991.06
2023-01-10T00:42:02.424Z,991.03
2023-01-10T00:43:02.403Z,991.11
2023-01-10T00:44:02.385Z,991.11
2023-01-10T00:45:02.363Z,991.16
2023-01-10T00:46:02.337Z,991.18
2023-01-10T00:47:02.286Z,991.20
2023-01-10T00:48:02.300Z,991.21
2023-01-10T00:49:02.244Z,991.23
2023-01-10T00:50:02.221Z,991.23
2023-01-10T00:51:02.198Z,991.29
2023-01-10T00:52:02.188Z,991.29
2023-01-10T00:53:02.146Z,991.33
2023-01-10T00:54:02.116Z,991.35
2023-01-10T00:55:02.116Z,991.36
2023-01-10T00:56:02.087Z,991.36
2023-01-10T00:57:02.046Z,991.40
2023-01-10T00:58:02.023Z,991.43
2023-01-10T00:59:01.999Z,991.47
2023-01-10T01:00:01.980Z,991.54
2023-01-10T01:01:01.999Z,991.56
2023-01-10T01:02:01.965Z,991.68
2023-01-10T01:03:01.953Z,991.68
2023-01-10T01:04:01.868Z,991.76
2023-01-10T01:05:01.843Z,991.76
2023-01-10T01:06:01.817Z,991.79
2023-01-10T01:07:01.790Z,991.85
2023-01-10T01:08:01.760Z,991.85
2023-01-10T01:09:01.736Z,991.89
2023-01-10T01:10:01.715Z,991.93
2023-01-10T01:11:01.688Z,991.94
2023-01-10T01:12:01.669Z,991.98
2023-01-10T01:13:01.629Z,992.02
2023-01-10T01:14:01.622Z,992.04
2023-01-10T01:15:01.623Z,992.10
2023-01-10T01:16:01.664Z,992.09
2023-01-10T01:17:01.545Z,992.13
2023-01-10T01:18:01.523Z,992.18
2023-01-10T01:19:01.489Z,992.26
2023-01-10T01:20:01.478Z,992.26
2023-01-10T01:21:01.426Z,992.31
2023-01-10T01:22:01.409Z,992.33
2023-01-10T01:23:01.385Z,992.38
2023-01-10T01:24:01.358Z,992.38
2023-01-10T01:25:01.361Z,992.40
2023-01-10T01:26:01.315Z,992.47
2023-01-10T01:27:01.295Z,992.48
2023-01-10T01:28:01.259Z,992.55
2023-01-10T01:29:01.228Z,992.59
2023-01-10T01:30:01.215Z,992.62
2023-01-10T01:31:01.201Z,992.65
2023-01-10T01:32:01.164Z,992.67
2023-01-10T01:33:01.151Z,992.71
2023-01-10T01:34:01.126Z,992.77
2023-01-10T01:35:01.110Z,992.80
2023-01-10T01:36:01.061Z,992.81
2023-01-10T01:37:01.030Z,992.90
2023-01-10T01:38:01.003Z,992.89
2023-01-10T01:39:00.987Z,992.97
2023-01-10T01:40:00.963Z,992.98
2023-01-10T01:41:00.936Z,993.02
2023-01-10T01:42:00.915Z,993.08
2023-01-10T01:43:00.872Z,993.06
2023-01-10T01:44:00.864Z,993.09
2023-01-10T01:45:00.827Z,993.13
2023-01-10T01:46:00.857Z,993.19
2023-01-10T01:47:00.779Z,993.23
2023-01-10T01:48:00.760Z,993.22
2023-01-10T01:49:00.726Z,993.23
2023-01-10T01:50:00.749Z,993.25
2023-01-10T01:51:00.679Z,993.26
2023-01-10T01:52:00.678Z,993.29
2023-01-10T01:53:00.628Z,993.27
2023-01-10T01:54:00.613Z,993.33
2023-01-10T01:55:00.588Z,993.35
2023-01-10T01:56:00.557Z,993.42
2023-01-10T01:57:00.523Z,993.45
2023-01-10T01:58:00.499Z,993.45
2023-01-10T01:59:00.490Z,993.50
2023-01-10T02:00:00.465Z,993.58
2023-01-10T02:01:00.453Z,993.55
2023-01-10T02:02:00.488Z,993.62
2023-01-10T02:03:03.054Z,993.60
2023-01-10T02:04:00.411Z,993.65
2023-01-10T02:05:00.320Z,993.64
2023-01-10T02:06:00.300Z,993.67
2023-01-10T02:07:00.284Z,993.69
2023-01-10T02:08:00.259Z,993.70
2023-01-10T02:09:00.247Z,993.69
2023-01-10T02:10:00.232Z,993.73
2023-01-10T02:11:00.169Z,993.75
2023-01-10T02:12:00.178Z,993.71
2023-01-10T02:13:00.119Z,993.75
2023-01-10T02:14:00.158Z,993.82
2023-01-10T02:15:00.090Z,993.81
2023-01-10T02:16:00.181Z,993.80
2023-01-10T02:17:00.019Z,993.78
2023-01-10T02:17:59.997Z,993.81
2023-01-10T02:18:59.988Z,993.84
2023-01-10T02:19:59.967Z,993.90
2023-01-10T02:20:59.916Z,993.81
2023-01-10T02:21:59.893Z,993.88
2023-01-10T02:22:59.893Z,993.91
2023-01-10T02:23:59.865Z,993.94
2023-01-10T02:24:59.843Z,993.91
2023-01-10T02:25:59.799Z,993.94
2023-01-10T02:26:59.777Z,994.01
2023-01-10T02:27:59.755Z,993.97
2023-01-10T02:28:59.727Z,994.04
2023-01-10T02:29:59.696Z,994.00
2023-01-10T02:30:59.716Z,994.04
2023-01-10T02:31:59.646Z,994.04
2023-01-10T02:33:05.034Z,993.97
2023-01-10T02:33:59.593Z,994.02
2023-01-10T02:34:59.569Z,994.04
2023-01-10T02:35:59.562Z,994.10
2023-01-10T02:36:59.516Z,994.07
2023-01-10T02:37:59.493Z,994.10
2023-01-10T02:38:59.458Z,994.14
2023-01-10T02:39:59.442Z,994.12
2023-01-10T02:40:59.419Z,994.11
2023-01-10T02:41:59.397Z,994.19
2023-01-10T02:42:59.364Z,994.18
2023-01-10T02:43:59.347Z,994.20
2023-01-10T02:44:59.313Z,994.19
2023-01-10T02:45:59.334Z,994.18
2023-01-10T02:46:59.274Z,994.14
2023-01-10T02:47:59.244Z,994.15
2023-01-10T02:48:59.215Z,994.18
2023-01-10T02:49:59.259Z,994.19
2023-01-10T02:50:59.155Z,994.19
2023-01-10T02:51:59.139Z,994.21
2023-01-10T02:52:59.122Z,994.21
2023-01-10T02:53:59.095Z,994.24
2023-01-10T02:54:59.070Z,994.22
2023-01-10T02:55:59.043Z,994.23
2023-01-10T02:56:59.014Z,994.20
2023-01-10T02:57:58.989Z,994.18
2023-01-10T02:58:58.969Z,994.22
2023-01-10T02:59:58.935Z,994.20
2023-01-10T03:00:58.940Z,994.23
2023-01-10T03:01:58.954Z,994.24
2023-01-10T03:02:58.862Z,994.28
2023-01-10T03:03:58.829Z,994.29
2023-01-10T03:04:58.870Z,994.36
2023-01-10T03:05:58.830Z,994.41
2023-01-10T03:06:58.758Z,994.44
2023-01-10T03:07:58.727Z,994.52
2023-01-10T03:08:58.705Z,994.54
2023-01-10T03:09:58.681Z,994.56
2023-01-10T03:10:58.647Z,994.56
2023-01-10T03:11:58.627Z,994.54
2023-01-10T03:12:58.601Z,994.58
2023-01-10T03:13:58.578Z,994.55
2023-01-10T03:14:58.543Z,994.57
2023-01-10T03:15:58.599Z,994.55
2023-01-10T03:16:58.501Z,994.54
2023-01-10T03:17:58.475Z,994.60
2023-01-10T03:18:58.449Z,994.59
2023-01-10T03:19:58.424Z,994.60
2023-01-10T03:20:58.399Z,994.60
2023-01-10T03:21:58.377Z,994.62
2023-01-10T03:22:58.347Z,994.64
2023-01-10T03:23:58.324Z,994.63
2023-01-10T03:24:58.298Z,994.61
2023-01-10T03:25:58.269Z,994.65
2023-01-10T03:26:58.301Z,994.62
2023-01-10T03:27:58.228Z,994.66
2023-01-10T03:28:58.212Z,994.68
2023-01-10T03:29:58.206Z,994.69
2023-01-10T03:30:58.139Z,994.67
2023-01-10T03:31:58.119Z,994.67
2023-01-10T03:32:58.097Z,994.73
2023-01-10T03:33:58.070Z,994.76
2023-01-10T03:34:58.037Z,994.82
2023-01-10T03:35:58.015Z,994.83
2023-01-10T03:36:57.991Z,994.89
2023-01-10T03:37:57.962Z,994.90
2023-01-10T03:38:57.944Z,994.92
2023-01-10T03:39:57.948Z,994.96
2023-01-10T03:40:57.899Z,994.94
2023-01-10T03:41:57.877Z,994.93
2023-01-10T03:42:57.854Z,995.00
2023-01-10T03:43:57.818Z,994.99
2023-01-10T03:44:57.784Z,994.95
2023-01-10T03:45:57.776Z,994.98
2023-01-10T03:46:57.733Z,995.00
2023-01-10T03:47:57.716Z,995.04
2023-01-10T03:48:57.689Z,995.05
2023-01-10T03:49:57.683Z,995.14
2023-01-10T03:50:57.639Z,995.11
2023-01-10T03:51:57.619Z,995.11
2023-01-10T03:52:57.587Z,995.14
2023-01-10T03:53:57.560Z,995.12
2023-01-10T03:54:57.537Z,995.10
2023-01-10T03:55:57.511Z,995.18
2023-01-10T03:56:57.496Z,995.24
2023-01-10T03:57:57.462Z,995.25
2023-01-10T03:58:57.447Z,995.29
2023-01-10T03:59:57.413Z,995.29
2023-01-10T04:00:57.454Z,995.28
2023-01-10T04:01:57.438Z,995.29
2023-01-10T04:02:57.345Z,995.32
2023-01-10T04:03:57.376Z,995.31
2023-01-10T04:04:57.298Z,995.38
2023-01-10T04:05:57.292Z,995.38
2023-01-10T04:06:57.233Z,995.40
2023-01-10T04:07:57.244Z,995.38
2023-01-10T04:08:57.175Z,995.40
2023-01-10T04:09:57.200Z,995.40
2023-01-10T04:10:57.150Z,995.44
2023-01-10T04:11:57.114Z,995.43
2023-01-10T04:12:57.080Z,995.42
2023-01-10T04:13:57.057Z,995.45
2023-01-10T04:14:57.014Z,995.47
2023-01-10T04:15:57.039Z,995.47
2023-01-10T04:16:56.981Z,995.49
2023-01-10T04:17:56.974Z,995.51
2023-01-10T04:18:56.924Z,995.48
2023-01-10T04:19:56.935Z,995.56
2023-01-10T04:20:56.875Z,995.55
2023-01-10T04:21:56.845Z,995.52
2023-01-10T04:22:56.824Z,995.52
2023-01-10T04:23:56.799Z,995.54
2023-01-10T04:24:56.769Z,995.53
2023-01-10T04:25:56.746Z,995.55
2023-01-10T04:26:56.733Z,995.56
2023-01-10T04:27:56.690Z,995.61
2023-01-10T04:28:56.712Z,995.60
2023-01-10T04:29:56.644Z,995.64
2023-01-10T04:30:56.627Z,995.68
2023-01-10T04:31:56.589Z,995.61
2023-01-10T04:32:56.568Z,995.61
2023-01-10T04:33:56.546Z,995.61
2023-01-10T04:34:56.519Z,995.64
2023-01-10T04:35:56.489Z,995.65
2023-01-10T04:36:56.473Z,995.64
2023-01-10T04:37:56.471Z,995.69
2023-01-10T04:38:56.426Z,995.69
2023-01-10T04:39:56.440Z,995.70
2023-01-10T04:40:56.361Z,995.70
2023-01-10T04:41:56.328Z,995.75
2023-01-10T04:42:56.324Z,995.79
2023-01-10T04:43:56.304Z,995.78
2023-01-10T04:44:56.265Z,995.80
2023-01-10T04:45:56.264Z,995.80
2023-01-10T04:46:56.234Z,995.87
2023-01-10T04:47:56.229Z,995.86
2023-01-10T04:48:56.161Z,995.88
2023-01-10T04:49:56.139Z,995.92
2023-01-10T04:50:56.108Z,995.92
2023-01-10T04:51:56.081Z,995.89
2023-01-10T04:52:56.058Z,995.86
2023-01-10T04:53:56.062Z,995.87
2023-01-10T04:54:56.007Z,995.87
2023-01-10T04:55:55.977Z,995.91
2023-01-10T04:56:55.975Z,995.91
2023-01-10T04:57:55.927Z,995.89
2023-01-10T04:58:55.923Z,995.96
2023-01-10T04:59:55.887Z,995.95
2023-01-10T05:00:55.909Z,995.93
2023-01-10T05:01:55.907Z,995.88
2023-01-10T05:02:55.971Z,995.90
2023-01-10T05:03:56.374Z,995.95
2023-01-10T05:04:55.760Z,995.95
2023-01-10T05:05:55.739Z,996.01
2023-01-10T05:06:55.707Z,996.04
2023-01-10T05:07:55.694Z,996.06
2023-01-10T05:09:13.717Z,996.14
2023-01-10T05:09:55.644Z,996.11
2023-01-10T05:10:55.908Z,996.19
2023-01-10T05:11:55.610Z,996.19
2023-01-10T05:12:55.561Z,996.17
2023-01-10T05:13:55.598Z,996.18
2023-01-10T05:14:55.544Z,996.25
2023-01-10T05:15:55.483Z,996.26
2023-01-10T05:16:55.465Z,996.26
2023-01-10T05:17:55.420Z,996.32
2023-01-10T05:18:55.417Z,996.30
2023-01-10T05:19:55.368Z,996.35
2023-01-10T05:20:55.341Z,996.37
2023-01-10T05:21:55.325Z,996.45
2023-01-10T05:22:55.330Z,996.48
2023-01-10T05:23:55.267Z,996.47
2023-01-10T05:24:55.240Z,996.47
2023-01-10T05:25:55.214Z,996.47
2023-01-10T05:26:55.194Z,996.46
2023-01-10T05:27:55.160Z,996.47
2023-01-10T05:28:55.326Z,996.51
2023-01-10T05:29:55.139Z,996.55
2023-01-10T05:30:55.101Z,996.56
2023-01-10T05:31:55.101Z,996.64
2023-01-10T05:32:55.028Z,996.67
2023-01-10T05:33:55.009Z,996.70
2023-01-10T05:34:55.027Z,996.72
2023-01-10T05:35:54.968Z,996.72
2023-01-10T05:36:54.940Z,996.73
2023-01-10T05:37:54.919Z,996.72
2023-01-10T05:38:54.879Z,996.72
2023-01-10T05:39:54.880Z,996.72
2023-01-10T05:40:54.845Z,996.73
2023-01-10T05:41:54.815Z,996.76
2023-01-10T05:42:54.950Z,996.80
2023-01-10T05:43:54.765Z,996.83
2023-01-10T05:44:54.736Z,996.84
2023-01-10T05:45:54.748Z,996.85
2023-01-10T05:46:54.680Z,996.86
2023-01-10T05:47:54.659Z,996.88
2023-01-10T05:48:54.705Z,996.93
2023-01-10T05:49:54.627Z,996.88
2023-01-10T05:50:54.597Z,996.90
2023-01-10T05:51:54.567Z,996.88
2023-01-10T05:52:54.654Z,996.90
2023-01-10T05:53:54.578Z,996.92
2023-01-10T05:54:54.510Z,996.93
2023-01-10T05:55:54.475Z,996.92
2023-01-10T05:56:54.424Z,996.93
2023-01-10T05:57:54.405Z,996.96
2023-01-10T05:59:05.325Z,997.00
2023-01-10T05:59:54.368Z,997.01
2023-01-10T06:00:54.811Z,996.99
2023-01-10T06:01:54.356Z,996.95
2023-01-10T06:02:54.449Z,996.97
2023-01-10T06:03:54.256Z,996.94
2023-01-10T06:04:54.225Z,996.96
2023-01-10T06:05:54.197Z,997.00
2023-01-10T06:06:54.694Z,997.02
2023-01-10T06:07:54.263Z,997.03
2023-01-10T06:08:54.523Z,997.05
2023-01-10T06:09:54.108Z,997.09
2023-01-10T06:10:54.066Z,997.14
2023-01-10T06:11:54.048Z,997.14
2023-01-10T06:12:54.157Z,997.17
2023-01-10T06:13:53.989Z,997.13
2023-01-10T06:14:54.016Z,997.20
2023-01-10T06:15:53.979Z,997.19
2023-01-10T06:16:53.919Z,997.21
2023-01-10T06:17:53.941Z,997.21
2023-01-10T06:18:53.976Z,997.24
2023-01-10T06:19:53.846Z,997.23
2023-01-10T06:20:53.819Z,997.29
2023-01-10T06:21:53.786Z,997.33
2023-01-10T06:22:53.775Z,997.31
2023-01-10T06:23:53.741Z,997.37
2023-01-10T06:24:53.703Z,997.40
2023-01-10T06:25:53.688Z,997.48
2023-01-10T06:26:53.672Z,997.53
2023-01-10T06:27:53.653Z,997.53
2023-01-10T06:28:53.643Z,997.54
2023-01-10T06:29:53.594Z,997.50
2023-01-10T06:30:53.603Z,997.58
2023-01-10T06:31:53.539Z,997.59
2023-01-10T06:32:53.514Z,997.64
2023-01-10T06:33:53.482Z,997.73
2023-01-10T06:34:53.495Z,997.67
2023-01-10T06:35:53.446Z,997.70
2023-01-10T06:36:53.420Z,997.72
2023-01-10T06:37:53.383Z,997.72
2023-01-10T06:38:53.375Z,997.70
2023-01-10T06:39:53.451Z,997.77
2023-01-10T06:40:53.489Z,997.77
2023-01-10T06:41:53.289Z,997.75
2023-01-10T06:42:53.271Z,997.74
2023-01-10T06:43:53.228Z,997.75
2023-01-10T06:44:53.207Z,997.71
2023-01-10T06:45:53.187Z,997.74
2023-01-10T06:46:53.170Z,997.81
2023-01-10T06:47:53.139Z,997.78
2023-01-10T06:48:53.102Z,997.77
2023-01-10T06:51:53.033Z,997.76
2023-01-10T06:52:52.992Z,997.83
2023-01-10T06:53:52.983Z,997.77
2023-01-10T06:54:52.964Z,997.80
2023-01-10T06:55:52.935Z,997.85
2023-01-10T06:56:52.890Z,997.85
2023-01-10T06:57:52.870Z,997.90
2023-01-10T06:58:52.907Z,997.97
2023-01-10T06:59:52.818Z,997.96
2023-01-10T07:00:52.872Z,997.99
2023-01-10T07:01:52.934Z,998.01
2023-01-10T07:02:52.737Z,998.04
2023-01-10T07:03:52.795Z,998.10
2023-01-10T07:04:52.676Z,998.11
2023-01-10T07:05:52.668Z,998.14
2023-01-10T07:06:52.628Z,998.18
2023-01-10T07:07:52.615Z,998.17
2023-01-10T07:08:52.575Z,998.22
2023-01-10T07:09:52.567Z,998.23
2023-01-10T07:10:52.540Z,998.26
2023-01-10T07:11:52.507Z,998.28
2023-01-10T07:12:52.482Z,998.25
2023-01-10T07:13:52.465Z,998.30
2023-01-10T07:14:52.428Z,998.28
2023-01-10T07:15:52.413Z,998.23
2023-01-10T07:16:52.403Z,998.20
2023-01-10T07:17:52.353Z,998.23
2023-01-10T07:18:52.370Z,998.18
2023-01-10T07:19:52.305Z,998.17
2023-01-10T07:20:52.271Z,998.17
2023-01-10T07:21:52.252Z,998.21
2023-01-10T07:22:52.222Z,998.19
2023-01-10T07:23:52.226Z,998.17
2023-01-10T07:24:52.201Z,998.18
2023-01-10T07:25:52.151Z,998.25
2023-01-10T07:26:52.118Z,998.30
2023-01-10T07:27:52.113Z,998.35
2023-01-10T07:28:52.089Z,998.41
2023-01-10T07:29:52.052Z,998.48
2023-01-10T07:30:52.014Z,998.47
2023-01-10T07:31:52.005Z,998.59
2023-01-10T07:32:51.967Z,998.60
2023-01-10T07:33:51.942Z,998.64
2023-01-10T07:34:51.921Z,998.71
2023-01-10T07:35:51.893Z,998.72
2023-01-10T07:36:51.885Z,998.74
2023-01-10T07:37:51.850Z,998.76
2023-01-10T07:38:51.820Z,998.74
2023-01-10T07:39:51.796Z,998.76
2023-01-10T07:40:51.822Z,998.74
2023-01-10T07:41:51.749Z,998.74
2023-01-10T07:42:51.733Z,998.75
2023-01-10T07:43:51.694Z,998.78
2023-01-10T07:44:51.673Z,998.82
2023-01-10T07:45:51.689Z,998.82
2023-01-10T07:46:51.626Z,998.86
2023-01-10T07:47:51.624Z,998.89
2023-01-10T07:48:51.569Z,998.85
2023-01-10T07:49:51.548Z,998.84
2023-01-10T07:50:51.521Z,998.80
2023-01-10T07:51:51.489Z,998.80
2023-01-10T07:52:51.487Z,998.78
2023-01-10T07:53:51.446Z,998.79
2023-01-10T07:54:51.411Z,998.81
2023-01-10T07:55:51.402Z,998.83
2023-01-10T07:56:51.361Z,998.90
2023-01-10T07:57:51.363Z,998.89
2023-01-10T07:58:51.314Z,998.92
2023-01-10T07:59:51.300Z,998.98
2023-01-10T08:00:51.305Z,999.00
2023-01-10T08:01:51.242Z,999.06
2023-01-10T08:02:51.297Z,999.04
2023-01-10T08:03:51.228Z,999.04
2023-01-10T08:04:51.163Z,999.05
2023-01-10T08:05:51.140Z,999.09
2023-01-10T08:06:51.127Z,999.19
2023-01-10T08:07:51.087Z,999.18
2023-01-10T08:08:51.077Z,999.20
2023-01-10T08:09:51.041Z,999.25
2023-01-10T08:10:51.017Z,999.28
2023-01-10T08:11:51.024Z,999.26
2023-01-10T08:12:50.966Z,999.19
2023-01-10T08:13:50.942Z,999.16
2023-01-10T08:14:50.915Z,999.23
2023-01-10T08:15:50.917Z,999.19
2023-01-10T08:16:50.861Z,999.16
2023-01-10T08:17:50.836Z,999.15
2023-01-10T08:18:50.812Z,999.20
2023-01-10T08:19:50.806Z,999.17
2023-01-10T08:20:50.764Z,999.23
2023-01-10T08:21:50.726Z,999.20
2023-01-10T08:22:50.711Z,999.15
2023-01-10T08:23:50.690Z,999.10
2023-01-10T08:24:50.664Z,999.04
2023-01-10T08:25:50.661Z,999.08
2023-01-10T08:26:50.614Z,999.09
2023-01-10T08:27:50.600Z,999.11
2023-01-10T08:28:50.556Z,999.16
2023-01-10T08:29:50.526Z,999.21
2023-01-10T08:30:50.806Z,999.18
2023-01-10T08:31:50.471Z,999.19
2023-01-10T08:32:50.457Z,999.21
2023-01-10T08:33:50.457Z,999.19
2023-01-10T08:34:50.395Z,999.19
2023-01-10T08:35:50.367Z,999.23
2023-01-10T08:36:50.339Z,999.28
2023-01-10T08:37:50.340Z,999.31
2023-01-10T08:38:50.360Z,999.43
2023-01-10T08:39:50.271Z,999.40
2023-01-10T08:40:50.267Z,999.40
2023-01-10T08:41:50.217Z,999.39
2023-01-10T08:42:50.198Z,999.42
2023-01-10T08:43:50.168Z,999.46
2023-01-10T08:44:50.147Z,999.45
2023-01-10T08:45:50.126Z,999.46
2023-01-10T08:46:50.103Z,999.44
2023-01-10T08:47:50.064Z,999.46
2023-01-10T08:48:50.067Z,999.46
2023-01-10T08:49:50.015Z,999.46
2023-01-10T08:50:50.000Z,999.50
2023-01-10T08:51:49.959Z,999.55
2023-01-10T08:52:49.944Z,999.56
2023-01-10T08:53:49.935Z,999.56
2023-01-10T08:54:49.891Z,999.50
2023-01-10T08:55:49.879Z,999.56
2023-01-10T08:56:49.858Z,999.54
2023-01-10T08:57:49.817Z,999.58
2023-01-10T08:58:49.809Z,999.54
2023-01-10T08:59:49.792Z,999.50
2023-01-10T09:00:49.771Z,999.56
2023-01-10T09:01:49.757Z,999.59
2023-01-10T09:02:49.808Z,999.65
2023-01-10T09:03:49.664Z,999.58
2023-01-10T09:04:49.716Z,999.62
2023-01-10T09:05:49.621Z,999.53
2023-01-10T09:06:49.599Z,999.58
2023-01-10T09:07:49.559Z,999.67
2023-01-10T09:08:49.557Z,999.60
2023-01-10T09:09:49.510Z,999.58
2023-01-10T09:10:49.498Z,999.65
2023-01-10T09:11:49.486Z,999.63
2023-01-10T09:12:49.500Z,999.63
2023-01-10T09:13:49.418Z,999.68
2023-01-10T09:14:49.396Z,999.61
2023-01-10T09:15:49.414Z,999.65
2023-01-10T09:16:49.336Z,999.66
2023-01-10T09:17:49.307Z,999.67
2023-01-10T09:18:49.296Z,999.74
2023-01-10T09:19:49.253Z,999.77
2023-01-10T09:20:49.240Z,999.79
2023-01-10T09:21:49.209Z,999.84
2023-01-10T09:22:49.199Z,999.76
2023-01-10T09:23:49.149Z,999.80
2023-01-10T09:24:49.133Z,999.90
2023-01-10T09:25:49.110Z,999.85
2023-01-10T09:26:49.103Z,999.87
2023-01-10T09:27:49.050Z,999.87
2023-01-10T09:28:49.055Z,999.89
2023-01-10T09:29:49.007Z,999.93
2023-01-10T09:30:49.001Z,999.92
2023-01-10T09:31:48.965Z,999.98
2023-01-10T09:32:48.944Z,1000.00
2023-01-10T09:33:48.899Z,999.99
2023-01-10T09:34:48.895Z,1000.00
2023-01-10T09:35:48.854Z,999.98
2023-01-10T09:36:48.840Z,1000.03
2023-01-10T09:37:48.798Z,1000.02
2023-01-10T09:38:48.789Z,1000.07
2023-01-10T09:39:48.757Z,1000.03
2023-01-10T09:40:48.736Z,1000.07
2023-01-10T09:41:48.697Z,1000.14
2023-01-10T09:42:48.733Z,1000.12
2023-01-10T09:43:48.671Z,1000.11
2023-01-10T09:44:48.664Z,1000.14
2023-01-10T09:45:48.640Z,1000.16
2023-01-10T09:46:48.648Z,1000.15
2023-01-10T09:47:48.564Z,1000.16
2023-01-10T09:48:48.526Z,1000.19
2023-01-10T09:49:48.508Z,1000.19
2023-01-10T09:50:48.542Z,1000.22
2023-01-10T09:51:48.469Z,1000.27
2023-01-10T09:52:48.435Z,1000.27
2023-01-10T09:53:48.403Z,1000.22
2023-01-10T09:54:48.386Z,1000.27
2023-01-10T09:55:48.352Z,1000.25
2023-01-10T09:56:48.335Z,1000.25
2023-01-10T09:57:48.302Z,1000.26
2023-01-10T09:58:48.278Z,1000.28
2023-01-10T09:59:48.245Z,1000.32
2023-01-10T10:00:48.233Z,1000.26
2023-01-10T10:01:48.211Z,1000.28
2023-01-10T10:02:48.179Z,1000.25
2023-01-10T10:03:48.317Z,1000.32
2023-01-10T10:04:48.135Z,1000.32
2023-01-10T10:05:48.099Z,1000.32
2023-01-10T10:06:49.248Z,1000.33
2023-01-10T10:07:48.051Z,1000.40
2023-01-10T10:08:48.031Z,1000.37
2023-01-10T10:09:48.009Z,1000.38
2023-01-10T10:10:47.987Z,1000.42
2023-01-10T10:11:47.966Z,1000.35
2023-01-10T10:12:47.937Z,1000.36
2023-01-10T10:13:47.919Z,1000.41
2023-01-10T10:14:47.877Z,1000.39
2023-01-10T10:15:47.903Z,1000.43
2023-01-10T10:16:47.839Z,1000.41
2023-01-10T10:17:47.837Z,1000.40
2023-01-10T10:18:47.782Z,1000.44
2023-01-10T10:19:47.795Z,1000.43
2023-01-10T10:20:47.756Z,1000.39
2023-01-10T10:21:47.726Z,1000.39
2023-01-10T10:22:47.678Z,1000.38
2023-01-10T10:23:47.665Z,1000.40
2023-01-10T10:24:47.666Z,1000.29
2023-01-10T10:25:47.610Z,1000.30
2023-01-10T10:26:47.585Z,1000.28
2023-01-10T10:27:47.555Z,1000.25
2023-01-10T10:28:54.643Z,1000.24
2023-01-10T10:29:47.501Z,1000.21
2023-01-10T10:30:47.532Z,1000.25
2023-01-10T10:31:47.489Z,1000.22
2023-01-10T10:32:47.454Z,1000.22
2023-01-10T10:33:48.879Z,1000.24
2023-01-10T10:34:47.381Z,1000.26
2023-01-10T10:35:47.362Z,1000.21
2023-01-10T10:36:47.343Z,1000.29
2023-01-10T10:37:47.304Z,1000.20
2023-01-10T10:38:47.298Z,1000.25
2023-01-10T10:39:47.263Z,1000.22
2023-01-10T10:40:47.243Z,1000.23
2023-01-10T10:41:47.208Z,1000.25
2023-01-10T10:42:47.255Z,1000.23
2023-01-10T10:43:47.181Z,1000.22
2023-01-10T10:44:47.136Z,1000.20
2023-01-10T10:45:47.165Z,1000.19
2023-01-10T10:46:47.099Z,1000.19
2023-01-10T10:47:47.080Z,1000.21
2023-01-10T10:48:47.037Z,1000.27
2023-01-10T10:49:47.032Z,1000.26
2023-01-10T10:50:47.030Z,1000.29
2023-01-10T10:51:47.005Z,1000.31
2023-01-10T10:52:46.952Z,1000.29
2023-01-10T10:53:46.932Z,1000.31
2023-01-10T10:54:47.871Z,1000.33
2023-01-10T10:55:47.493Z,1000.42
2023-01-10T10:56:46.858Z,1000.38
2023-01-10T10:57:59.352Z,1000.39
2023-01-10T10:58:46.797Z,1000.32
2023-01-10T10:59:46.781Z,1000.38
2023-01-10T11:00:46.836Z,1000.37
2023-01-10T11:01:46.881Z,1000.36
2023-01-10T11:02:46.730Z,1000.29
2023-01-10T11:03:46.668Z,1000.30
2023-01-10T11:04:46.722Z,1000.28
2023-01-10T11:05:46.637Z,1000.34
2023-01-10T11:06:46.669Z,1000.26
2023-01-10T11:07:46.575Z,1000.32
2023-01-10T11:08:46.560Z,1000.32
2023-01-10T11:09:46.540Z,1000.29
2023-01-10T11:10:46.538Z,1000.28
2023-01-10T11:11:46.496Z,1000.32
2023-01-10T11:12:46.459Z,1000.28
2023-01-10T11:13:46.432Z,1000.27
2023-01-10T11:14:46.398Z,1000.31
2023-01-10T11:15:46.403Z,1000.28
2023-01-10T11:16:46.432Z,1000.27
2023-01-10T11:17:46.331Z,1000.29
2023-01-10T11:18:46.309Z,1000.36
2023-01-10T11:19:46.281Z,1000.29
2023-01-10T11:20:46.254Z,1000.30
2023-01-10T11:21:46.231Z,1000.28
2023-01-10T11:22:46.211Z,1000.31
2023-01-10T11:23:46.202Z,1000.28
2023-01-10T11:24:46.163Z,1000.28
2023-01-10T11:25:46.131Z,1000.25
2023-01-10T11:26:46.112Z,1000.25
2023-01-10T11:27:46.168Z,1000.22
2023-01-10T11:28:46.057Z,1000.18
2023-01-10T11:29:46.089Z,1000.16
2023-01-10T11:30:46.184Z,1000.18
2023-01-10T11:31:46.130Z,1000.20
2023-01-10T11:32:46.153Z,1000.22
2023-01-10T11:33:45.976Z,1000.20
2023-01-10T11:34:45.947Z,1000.20
2023-01-10T11:35:46.010Z,1000.13
2023-01-10T11:36:46.715Z,1000.16
2023-01-10T11:37:45.844Z,1000.14
2023-01-10T11:38:45.812Z,1000.16
2023-01-10T11:39:45.819Z,1000.08
2023-01-10T11:40:45.772Z,1000.15
2023-01-10T11:41:45.794Z,1000.15
2023-01-10T11:42:45.714Z,1000.17
2023-01-10T11:43:45.722Z,1000.18
2023-01-10T11:44:45.661Z,1000.19
2023-01-10T11:45:45.685Z,1000.26
2023-01-10T11:46:45.629Z,1000.26
2023-01-10T11:47:45.931Z,1000.29
2023-01-10T11:49:04.980Z,1000.27
2023-01-10T11:49:45.580Z,1000.28
2023-01-10T11:50:45.527Z,1000.30
2023-01-10T11:51:45.498Z,1000.29
2023-01-10T11:52:45.569Z,1000.28
2023-01-10T11:53:45.521Z,1000.23
2023-01-10T11:54:45.423Z,1000.26
2023-01-10T11:55:45.418Z,1000.19
2023-01-10T11:56:45.381Z,1000.18
2023-01-10T11:57:45.346Z,1000.16
2023-01-10T11:58:45.325Z,1000.13
2023-01-10T11:59:45.312Z,1000.17
2023-01-10T12:00:45.264Z,1000.11
2023-01-10T12:01:45.277Z,1000.14
2023-01-10T12:02:45.238Z,1000.16
2023-01-10T12:03:45.192Z,1000.15
2023-01-10T12:04:45.179Z,1000.16
2023-01-10T12:05:45.220Z,1000.18
2023-01-10T12:06:45.123Z,1000.20
2023-01-10T12:07:45.112Z,1000.20
2023-01-10T12:08:45.103Z,1000.18
2023-01-10T12:09:45.064Z,1000.22
2023-01-10T12:10:45.031Z,1000.27
2023-01-10T12:11:45.004Z,1000.23
2023-01-10T12:12:45.027Z,1000.21
2023-01-10T12:13:44.991Z,1000.21
2023-01-10T12:14:44.983Z,1000.20
2023-01-10T12:15:44.910Z,1000.18
2023-01-10T12:16:44.964Z,1000.19
2023-01-10T12:17:44.864Z,1000.21
2023-01-10T12:18:44.827Z,1000.18
2023-01-10T12:19:44.811Z,1000.19
2023-01-10T12:20:44.806Z,1000.16
2023-01-10T12:21:44.776Z,1000.14
2023-01-10T12:22:44.733Z,1000.12
2023-01-10T12:23:44.710Z,1000.14
2023-01-10T12:24:44.690Z,1000.11